ADDS METAR Data INFO
IDs: Format: Raw Decoded Include TAF

Data at: 0917 UTC 17 Oct 2017

KMIS 170855Z AUTO 07022G29KT 10SM SCT027 21/14 A3009 RMK A01
KMIS 170835Z AUTO 06026KT 10SM SCT029 21/13 A3009 RMK A01
KMIS 170815Z AUTO 07027KT 10SM SCT029 21/14 A3009 RMK A01
KMIS 170755Z AUTO 07026G32KT 10SM CLR 21/14 A3010 RMK A01
KMIS 170735Z AUTO 07026KT 10SM CLR 22/14 A3010 RMK A01
KMIS 170715Z AUTO 07026KT 10SM FEW030 22/14 A3010 RMK A01
KMIS 170655Z AUTO 07027KT 10SM CLR 22/14 A3010 RMK A01
KMIS 170635Z AUTO 07027KT CLR 22/14 A3010 RMK A01
KMIS 170615Z AUTO 07027G35KT 10SM FEW031 22/13 A3010 RMK A01
KMIS 170555Z AUTO 07027G34KT 10SM SCT032 22/13 A3011 RMK A01
KMIS 170535Z AUTO 06028KT 10SM BKN031 22/14 A3012 RMK A01
KMIS 170515Z AUTO 06026G31KT 10SM SCT031 22/15 A3012 RMK A01
KMIS 170455Z AUTO 06026G32KT 10SM SCT028 SCT032 22/14 A3012 RMK A01
KMIS 170435Z AUTO 06028G34KT 10SM SCT028 SCT033 22/14 A3012 RMK A01
KMIS 170415Z AUTO 06028G35KT 10SM SCT030 22/14 A3012 RMK A01
KMIS 170355Z AUTO 05028G34KT 10SM SCT030 22/13 A3013 RMK A01
KMIS 170335Z AUTO 05027G34KT 10SM FEW029 22/13 A3013 RMK A01
KMIS 170315Z AUTO 05028KT 10SM FEW029 22/13 A3013 RMK A01
KMIS 170255Z AUTO 04030KT 10SM FEW028 22/14 A3013 RMK A01
KMIS 170235Z AUTO 05029KT 10SM FEW028 22/14 A3012 RMK A01
KMIS 170215Z AUTO 05028G34KT 10SM FEW027 23/14 A3012 RMK A01
KMIS 170155Z AUTO 04029G35KT 10SM CLR 23/13 A3011 RMK A01
KMIS 170135Z AUTO 04029KT 10SM CLR 23/13 A3010 RMK A01
KMIS 170115Z AUTO 04027KT 10SM CLR 24/13 A3009 RMK A01
KMIS 170055Z AUTO 03028KT 10SM CLR 24/13 A3008 RMK A01
KMIS 170035Z AUTO 03027KT 10SM CLR 24/14 A3008 RMK A01
KMIS 170015Z AUTO 03025KT 10SM CLR 24/14 A3007 RMK A01
KMIS 162355Z AUTO 04024KT 10SM CLR 24/14 A3007 RMK A01
KMIS 162335Z AUTO 04025KT 10SM CLR 24/13 A3007 RMK A01
KMIS 162315Z AUTO 05025KT 10SM CLR 24/12 A3007 RMK A01
KMIS 162255Z AUTO 05021G27KT 10SM CLR 24/13 A3006 RMK A01
KMIS 162235Z AUTO 05023KT 10SM CLR 23/15 A3005 RMK A01
KMIS 162215Z AUTO 05021KT 10SM FEW022 23/17 A3005 RMK A01
KMIS 162155Z AUTO 05021KT 10SM BKN020 BKN026 23/18 A3005 RMK A01
KMIS 162135Z AUTO 06023KT 10SM OVC017 23/19 A3005 RMK A01
KMIS 162115Z AUTO 06019KT 10SM OVC016 23/19 A3004 RMK A01
KMIS 162055Z AUTO 05020KT 10SM OVC014 23/20 A3005 RMK A01
KMIS 162035Z AUTO 05019KT 10SM OVC014 22/20 A3005 RMK A01
KMIS 162015Z AUTO 06019KT OVC013 22/19 A3005 RMK A01
KMIS 161955Z AUTO 05018KT 10SM OVC012 22/19 A3006 RMK A01
KMIS 161935Z AUTO 04018KT 10SM OVC011 22/19 A3006 RMK A01
KMIS 161915Z AUTO 04018KT 10SM OVC011 22/19 A3006 RMK A01
KMIS 161855Z AUTO 04020KT 10SM OVC011 22/20 A3006 RMK A01
KMIS 161835Z AUTO 04017KT 10SM OVC011 22/20 A3006 RMK A01
KMIS 161815Z AUTO 04019KT 10SM OVC011 22/20 A3007 RMK A01
KMIS 161755Z AUTO 04021KT 10SM OVC010 22/20 A3007 RMK A01
KMIS 161735Z AUTO 03020KT 10SM BKN010 OVC014 22/20 A3008 RMK A01
KMIS 161715Z AUTO 04021G26KT 10SM BKN009 OVC013 22/20 A3008 RMK A01
KMIS 161655Z AUTO 03022KT 10SM BKN009 OVC013 23/21 A3009 RMK A01
KMIS 161635Z AUTO 04020KT 9SM OVC008 23/21 A3009 RMK A01
KMIS 161615Z AUTO 03022KT 9SM BKN009 OVC014 23/21 A3010 RMK A01
KMIS 161555Z AUTO 04023KT 10SM SCT008 BKN014 23/22 A3010 RMK A01
KMIS 161535Z AUTO 03023KT 10SM FEW010 SCT014 BKN045 24/22 A3010 RMK A01
KMIS 161515Z AUTO 04023KT 10SM FEW011 SCT015 BKN036 24/22 A3010 RMK A01
KMIS 161455Z AUTO 04023KT 10SM FEW011 BKN016 OVC035 24/22 A3010 RMK A01
KMIS 161435Z AUTO 04022KT 9SM BKN012 BKN017 OVC022 25/22 A3010 RMK A01
KMIS 161415Z AUTO 04021KT 10SM BKN013 BKN017 OVC032 25/23 A3010 RMK A01
KMIS 161355Z AUTO 04021KT 9SM SCT015 SCT023 BKN032 25/23 A3008 RMK A01
KMIS 161335Z AUTO 05018KT 10SM FEW016 FEW080 SCT090 26/22 A3008 RMK A01
KMIS 161315Z AUTO 06021KT 10SM FEW060 25/22 A3007 RMK A01
KMIS 161255Z AUTO 06021KT 7SM SCT065 BKN080 BKN090 24/22 A3006 RMK A01
KMIS 161235Z AUTO 06021KT 5SM BR FEW006 SCT032 OVC080 24/22 A3005 RMK A01
KMIS 161215Z AUTO 06026G34KT 2 1/2SM BR FEW010 SCT016 BKN030 24/22 A3005 RMK A01
KMIS 161155Z AUTO 05032KT 4SM BR SCT004 BKN010 OVC030 25/23 A3004 RMK A01
KMIS 161135Z AUTO 03025G31KT M1/4SM FG OVC004 25/23 A3003 RMK A01
KMIS 161115Z AUTO 02023G29KT 6SM HZ SCT012 BKN023 OVC046 26/24 A3002 RMK A01
KMIS 161055Z AUTO 02008KT 10SM FEW013 SCT020 BKN044 27/24 A3003 RMK A01
KMIS 161035Z AUTO 05007KT 10SM FEW031 BKN042 27/24 A3002 RMK A01
KMIS 161015Z AUTO 04005KT 10SM SCT080 27/24 A3002 RMK A01
KMIS 160955Z AUTO 02004KT 10SM FEW013 SCT055 BKN075 27/24 A3002 RMK A01
KMIS 160935Z AUTO 02004KT 10SM SCT050 OVC055 27/24 A3001 RMK A01
KMIS 160915Z AUTO 35004KT 10SM FEW046 BKN055 OVC080 27/24 A3002 RMK A01
KMIS 160855Z AUTO 00000KT 10SM FEW065 BKN080 BKN100 27/24 A3001 RMK A01
KMIS 160835Z AUTO 00000KT 10SM FEW027 FEW037 SCT110 27/24 A3002 RMK A01
KMIS 160815Z AUTO 15004KT 10SM FEW041 FEW048 SCT055 28/24 A3002 RMK A01
KMIS 160755Z AUTO 00000KT 10SM FEW017 SCT048 BKN055 27/24 A3002 RMK A01
KMIS 160735Z AUTO 00000KT 10SM FEW017 FEW023 SCT045 27/24 A3003 RMK A01
KMIS 160715Z AUTO 00000KT 10SM SCT017 SCT044 SCT050 27/24 A3003 RMK A01
KMIS 160655Z AUTO 00000KT CLR 28/24 A3004 RMK A01
KMIS 160635Z AUTO 00000KT 10SM CLR 28/24 A3004 RMK A01
KMIS 160615Z AUTO 20004KT 10SM FEW014 FEW047 29/24 A3005 RMK A01
KMIS 160555Z AUTO 19004KT 10SM FEW015 FEW047 29/24 A3005 RMK A01
KMIS 160535Z AUTO 17004KT 10SM CLR 30/24 A3006 RMK A01
KMIS 160515Z AUTO 17005KT 10SM CLR 30/24 A3006 RMK A01
KMIS 160455Z AUTO 00000KT 10SM CLR 31/24 A3006 RMK A01
KMIS 160435Z AUTO 00000KT 10SM FEW050 31/24 A3006 RMK A01
KMIS 160415Z AUTO 14004KT 10SM FEW031 SCT038 BKN045 31/24 A3007 RMK A01
KMIS 160355Z AUTO 00000KT 10SM FEW025 BKN032 OVC050 30/24 A3007 RMK A01
KMIS 160335Z AUTO 17004KT 10SM FEW021 SCT026 BKN036 30/24 A3007 RMK A01
KMIS 160315Z AUTO 16004KT 10SM FEW022 SCT036 SCT043 30/24 A3006 RMK A01
KMIS 160255Z AUTO VRB04KT 10SM CLR 30/24 A3006 RMK A01
KMIS 160235Z AUTO 14006KT 10SM CLR 30/25 A3005 RMK A01
KMIS 160215Z AUTO 14006G13KT 10SM FEW016 FEW055 29/24 A3004 RMK A01
KMIS 160155Z AUTO 11010KT 10SM SCT016 SCT021 BKN090 29/24 A3005 RMK A01
KMIS 160135Z AUTO VRB04G10KT 10SM SCT020 SCT036 BKN090 27/24 A3006 RMK A01
KMIS 160115Z AUTO 06008KT 040V110 10SM FEW070 FEW080 FEW090 28/24 A3006 RMK A01
KMIS 160055Z AUTO 09006KT 10SM SCT017 SCT021 BKN065 28/24 A3006 RMK A01
KMIS 160035Z AUTO VRB03KT 10SM SCT017 BKN021 BKN025 29/25 A3005 RMK A01
KMIS 160015Z AUTO VRB04KT 10SM FEW016 SCT021 SCT025 33/24 A3004 RMK A01
KMIS 152355Z AUTO VRB03KT 10SM FEW016 SCT021 SCT036 30/24 A3003 RMK A01
KMIS 152335Z AUTO 16004KT 10SM CLR 30/24 A3003 RMK A01
KMIS 152315Z AUTO 00000KT 10SM CLR 30/24 A3003 RMK A01
KMIS 152255Z AUTO VRB03KT 10SM FEW070 FEW080 27/24 A3003 RMK A01
KMIS 152235Z AUTO 14004KT 10SM SCT065 SCT080 SCT100 28/24 A3003 RMK A01
KMIS 152215Z AUTO 14004KT 9SM FEW065 28/23 A3003 RMK A01
KMIS 152155Z AUTO 05005KT 2 1/2SM HZ FEW037 FEW045 SCT065 27/24 A3003 RMK A01
KMIS 152135Z AUTO 13006KT 10SM FEW043 SCT050 SCT060 31/24 A3002 RMK A01